Time;durP1;ratioP1;P1;durP2;ratioP2;P2;SDS_P1;SDS_P2;PMS_P1;PMS_P2;Temp;Humidity;BMP_temperature;BMP_pressure;BME280_temperature;BME280_humidity;BME280_pressure;Samples;Min_cycle;Max_cycle;Signal;HPM_P1;HPM_P2
2022/11/10 00:00:21;;;;;;;10.73;3.30;;;9.50;99.90;;;;;;5023849;28;20408;-60
2022/11/10 00:02:47;;;;;;;13.05;3.13;;;9.60;99.90;;;;;;5022853;28;20053;-60
2022/11/10 00:05:14;;;;;;;13.90;3.50;;;9.60;99.90;;;;;;5003031;28;20060;-60
2022/11/10 00:07:40;;;;;;;9.75;2.97;;;9.60;99.90;;;;;;5022527;28;20112;-61
2022/11/10 00:10:07;;;;;;;12.63;3.92;;;9.40;99.90;;;;;;5023212;28;20054;-61
2022/11/10 00:12:33;;;;;;;10.90;3.47;;;9.40;99.90;;;;;;5023336;28;20042;-61
2022/11/10 00:17:44;;;;;;;12.57;3.33;;;9.40;99.90;;;;;;5023094;28;20147;-61
2022/11/10 00:20:11;;;;;;;14.02;3.95;;;9.40;99.90;;;;;;5022772;28;20599;-61
2022/11/10 00:22:38;;;;;;;11.27;3.47;;;9.60;99.90;;;;;;5023962;28;20048;-61
2022/11/10 00:25:05;;;;;;;14.40;3.60;;;9.50;99.90;;;;;;5023111;28;20051;-60
2022/11/10 00:27:32;;;;;;;12.63;3.70;;;9.60;99.90;;;;;;5022487;28;20050;-60
2022/11/10 00:29:58;;;;;;;15.00;3.92;;;9.50;99.90;;;;;;5022006;28;20053;-60
2022/11/10 00:32:23;;;;;;;14.02;4.13;;;9.30;99.90;;;;;;5004890;28;20049;-60
2022/11/10 00:34:49;;;;;;;8.73;3.42;;;9.20;99.90;;;;;;5021909;28;20569;-60
2022/11/10 00:37:15;;;;;;;13.20;4.22;;;9.50;99.90;;;;;;5004824;28;20049;-60
2022/11/10 00:39:41;;;;;;;12.55;4.10;;;9.50;99.90;;;;;;5022499;28;20057;-62
2022/11/10 00:42:06;;;;;;;12.07;4.30;;;9.20;99.90;;;;;;5023003;28;20043;-60
2022/11/10 00:44:32;;;;;;;14.13;4.45;;;9.30;99.90;;;;;;5022460;28;20438;-60
2022/11/10 00:46:58;;;;;;;17.55;5.00;;;9.30;99.90;;;;;;5022537;28;20040;-61
2022/11/10 00:49:25;;;;;;;17.13;5.30;;;9.30;99.90;;;;;;5004677;28;20056;-60
2022/11/10 00:51:51;;;;;;;12.73;4.35;;;9.40;99.90;;;;;;5022524;28;20182;-60
2022/11/10 00:54:16;;;;;;;12.38;4.20;;;9.50;99.90;;;;;;5023318;28;20037;-61
2022/11/10 00:56:42;;;;;;;11.60;5.13;;;9.40;99.90;;;;;;5022908;28;20041;-60
2022/11/10 00:59:08;;;;;;;15.13;4.80;;;9.40;99.90;;;;;;5023309;28;20029;-60
2022/11/10 01:01:33;;;;;;;13.43;4.47;;;9.50;99.90;;;;;;5022357;28;20084;-60
2022/11/10 01:03:59;;;;;;;13.23;4.78;;;9.40;99.90;;;;;;5020226;28;20049;-60
2022/11/10 01:06:25;;;;;;;16.58;5.38;;;9.20;99.90;;;;;;5021874;28;20045;-60
2022/11/10 01:08:50;;;;;;;10.88;4.68;;;9.30;99.90;;;;;;5022466;28;20048;-60
2022/11/10 01:11:19;;;;;;;15.20;5.15;;;9.20;99.90;;;;;;5023003;28;20058;-60
2022/11/10 01:13:45;;;;;;;12.57;4.43;;;9.20;99.90;;;;;;5021464;28;20084;-61
2022/11/10 01:16:15;;;;;;;11.98;5.18;;;9.50;99.90;;;;;;5022705;28;20393;-61
2022/11/10 01:18:41;;;;;;;15.13;5.30;;;9.30;99.90;;;;;;5021119;28;20050;-61
2022/11/10 01:21:07;;;;;;;13.90;4.60;;;9.30;99.90;;;;;;5021788;28;20068;-60
2022/11/10 01:23:34;;;;;;;13.77;5.75;;;9.30;99.90;;;;;;5021114;28;20045;-59
2022/11/10 01:26:01;;;;;;;13.82;4.82;;;9.40;99.90;;;;;;5021533;28;20140;-60
2022/11/10 01:28:27;;;;;;;12.13;4.88;;;9.30;99.90;;;;;;5021513;28;20128;-60
2022/11/10 01:31:00;;;;;;;18.45;5.38;;;9.20;99.90;;;;;;5021005;28;20061;-61
2022/11/10 01:33:26;;;;;;;17.55;6.28;;;9.20;99.90;;;;;;5020590;28;20049;-61
2022/11/10 01:35:52;;;;;;;14.65;5.68;;;9.10;99.90;;;;;;5021822;28;20562;-60
2022/11/10 01:38:18;;;;;;;16.58;5.78;;;9.10;99.90;;;;;;5021914;28;20046;-60
2022/11/10 01:40:44;;;;;;;10.70;5.15;;;9.30;99.90;;;;;;5020810;28;20048;-60
2022/11/10 01:43:10;;;;;;;17.92;5.60;;;9.20;99.90;;;;;;5004271;28;20110;-60
2022/11/10 01:45:47;;;;;;;16.02;5.38;;;9.20;99.90;;;;;;5022788;28;20048;-60
2022/11/10 01:48:26;;;;;;;14.75;6.05;;;9.10;99.90;;;;;;5020669;28;20041;-60
2022/11/10 01:50:53;;;;;;;17.10;5.57;;;9.10;99.90;;;;;;5004126;28;20053;-61
2022/11/10 01:53:24;;;;;;;13.45;5.50;;;9.10;99.90;;;;;;5022247;28;20092;-60
2022/11/10 01:55:51;;;;;;;15.55;6.20;;;9.40;99.90;;;;;;5022358;28;20453;-60
2022/11/10 01:58:25;;;;;;;19.35;6.30;;;9.10;99.90;;;;;;5022205;28;20056;-60
2022/11/10 02:00:51;;;;;;;18.45;6.47;;;9.20;99.90;;;;;;5022232;28;20451;-61
2022/11/10 02:03:25;;;;;;;17.83;6.20;;;9.10;99.90;;;;;;5003407;28;20083;-60
2022/11/10 02:05:51;;;;;;;17.60;6.47;;;9.10;99.90;;;;;;5021517;28;20060;-60
2022/11/10 02:08:18;;;;;;;16.67;6.88;;;9.40;99.90;;;;;;5022182;28;20111;-60
2022/11/10 02:10:44;;;;;;;21.08;7.82;;;9.10;99.90;;;;;;5021281;28;20723;-60
2022/11/10 02:13:10;;;;;;;14.10;6.72;;;9.10;99.90;;;;;;5022409;28;20116;-60
2022/11/10 02:15:36;;;;;;;18.70;7.40;;;9.00;99.90;;;;;;5007435;28;20784;-60
2022/11/10 02:18:02;;;;;;;23.08;7.80;;;9.20;99.90;;;;;;5006389;28;20049;-61
2022/11/10 02:20:27;;;;;;;18.92;7.57;;;9.10;99.90;;;;;;5025904;28;20045;-60
2022/11/10 02:22:53;;;;;;;18.80;6.90;;;9.10;99.90;;;;;;5024693;28;20057;-60
2022/11/10 02:25:21;;;;;;;18.40;7.22;;;9.10;99.90;;;;;;5026038;28;20088;-60
2022/11/10 02:27:47;;;;;;;17.80;7.95;;;9.00;99.90;;;;;;5024738;28;20124;-60
2022/11/10 02:30:14;;;;;;;18.52;7.78;;;9.00;99.90;;;;;;5025739;28;20124;-60
2022/11/10 02:32:40;;;;;;;24.38;8.20;;;9.10;99.90;;;;;;5025323;28;20065;-60
2022/11/10 02:35:06;;;;;;;22.08;8.10;;;9.20;99.90;;;;;;5025620;28;20606;-61
2022/11/10 02:37:32;;;;;;;19.60;7.95;;;9.20;99.90;;;;;;5025345;28;20045;-60
2022/11/10 02:39:57;;;;;;;14.05;6.90;;;9.20;99.90;;;;;;5025683;28;20149;-61
2022/11/10 02:42:23;;;;;;;19.58;8.25;;;9.10;99.90;;;;;;5025885;28;20088;-60
2022/11/10 02:44:49;;;;;;;24.10;8.15;;;9.20;99.90;;;;;;5024788;28;20045;-61
2022/11/10 02:47:15;;;;;;;18.48;8.02;;;9.10;99.90;;;;;;5025064;28;20069;-60
2022/11/10 02:49:40;;;;;;;19.83;8.80;;;9.00;99.90;;;;;;5024950;28;20390;-62
2022/11/10 02:52:06;;;;;;;18.67;7.63;;;9.00;99.90;;;;;;5026154;28;20099;-60
2022/11/10 02:54:31;;;;;;;17.02;7.20;;;9.00;99.90;;;;;;5024654;28;20038;-60
2022/11/10 02:56:57;;;;;;;14.32;7.28;;;9.00;99.90;;;;;;5025244;28;20132;-60
2022/11/10 02:59:23;;;;;;;20.70;7.70;;;9.10;99.90;;;;;;5025490;28;20120;-61
2022/11/10 03:01:48;;;;;;;20.63;7.82;;;9.10;99.90;;;;;;5025349;28;20504;-60
2022/11/10 03:04:14;;;;;;;23.63;8.35;;;9.10;99.90;;;;;;5022977;28;20172;-61
2022/11/10 03:06:39;;;;;;;19.08;7.75;;;9.00;99.90;;;;;;5024594;28;20137;-61
2022/11/10 03:09:05;;;;;;;17.88;7.30;;;8.90;99.90;;;;;;5025179;28;20639;-61
2022/11/10 03:11:31;;;;;;;14.45;5.18;;;9.00;99.90;;;;;;5025186;28;20435;-61
2022/11/10 03:13:56;;;;;;;18.55;7.07;;;9.00;99.90;;;;;;5024309;28;20439;-61
2022/11/10 03:16:22;;;;;;;17.00;6.95;;;9.00;99.90;;;;;;5025121;28;20037;-61
2022/11/10 03:18:48;;;;;;;16.92;7.38;;;9.10;99.90;;;;;;5023665;28;20092;-60
2022/11/10 03:21:13;;;;;;;16.58;7.00;;;9.00;99.90;;;;;;5024590;28;20175;-61
2022/11/10 03:23:39;;;;;;;17.63;7.10;;;9.20;99.90;;;;;;5023868;28;20120;-60
2022/11/10 03:26:05;;;;;;;20.52;7.07;;;9.00;99.90;;;;;;5023758;28;20126;-60
2022/11/10 03:28:31;;;;;;;15.23;7.22;;;9.20;99.90;;;;;;5024677;28;20095;-60
2022/11/10 03:30:57;;;;;;;15.65;6.88;;;9.20;99.90;;;;;;5022887;28;20045;-60
2022/11/10 03:33:23;;;;;;;16.73;7.43;;;9.20;99.90;;;;;;5005564;28;20041;-60
2022/11/10 03:35:48;;;;;;;18.40;7.03;;;9.20;99.90;;;;;;5023119;28;20093;-60
2022/11/10 03:38:14;;;;;;;19.20;7.28;;;9.10;99.90;;;;;;5023953;28;20041;-60
2022/11/10 03:40:40;;;;;;;16.27;7.07;;;8.90;99.90;;;;;;5005209;28;20045;-60
2022/11/10 03:43:05;;;;;;;19.65;7.55;;;9.10;99.90;;;;;;5023711;28;20045;-60
2022/11/10 03:45:31;;;;;;;17.63;7.45;;;9.20;99.90;;;;;;5023233;28;20420;-61
2022/11/10 03:47:56;;;;;;;18.88;7.78;;;8.80;99.90;;;;;;5005645;28;20045;-60
2022/11/10 03:50:22;;;;;;;14.48;6.97;;;8.90;99.90;;;;;;5023314;28;20045;-60
2022/11/10 03:52:48;;;;;;;18.02;7.40;;;9.10;99.90;;;;;;5023840;28;20049;-61
2022/11/10 03:55:16;;;;;;;17.52;7.60;;;8.90;99.90;;;;;;5005972;28;20047;-60
2022/11/10 03:57:43;;;;;;;17.63;7.30;;;9.10;99.90;;;;;;5023247;28;20461;-60
2022/11/10 04:00:11;;;;;;;18.55;7.88;;;9.00;99.90;;;;;;5023995;28;20064;-60
2022/11/10 04:02:37;;;;;;;15.18;7.00;;;9.00;99.90;;;;;;5006179;28;20116;-60
2022/11/10 04:10:38;;;;;;;19.70;8.60;;;8.90;99.90;;;;;;5023442;28;20060;-60
2022/11/10 04:15:48;;;;;;;20.67;8.53;;;8.80;99.90;;;;;;5023646;28;20129;-61
2022/11/10 04:18:20;;;;;;;22.45;8.35;;;8.90;99.90;;;;;;5022239;28;20128;-60
2022/11/10 04:20:50;;;;;;;22.42;8.85;;;8.90;99.90;;;;;;5023770;28;20689;-60
2022/11/10 04:23:29;;;;;;;23.92;8.80;;;8.80;99.90;;;;;;5023744;28;20080;-60
2022/11/10 04:28:48;;;;;;;25.08;9.27;;;8.90;99.90;;;;;;5022417;28;20056;-61
2022/11/10 04:31:15;;;;;;;20.20;8.88;;;8.80;99.90;;;;;;5023467;28;20045;-60
2022/11/10 04:33:42;;;;;;;23.33;8.88;;;8.90;99.90;;;;;;5021942;28;20037;-61
2022/11/10 04:36:10;;;;;;;20.67;8.45;;;9.00;99.90;;;;;;5023268;28;20106;-61
2022/11/10 04:38:36;;;;;;;21.55;9.25;;;8.90;99.90;;;;;;5022677;28;20038;-60
2022/11/10 04:41:02;;;;;;;18.27;8.23;;;8.80;99.90;;;;;;5005781;28;20046;-60
2022/11/10 04:43:29;;;;;;;24.27;9.85;;;8.80;99.90;;;;;;5023592;28;20457;-62
2022/11/10 04:45:55;;;;;;;18.35;8.60;;;8.90;99.90;;;;;;5022551;28;20049;-60
2022/11/10 04:48:21;;;;;;;16.73;8.07;;;8.80;99.90;;;;;;5022826;28;20072;-60
2022/11/10 04:50:47;;;;;;;21.52;8.77;;;9.10;99.90;;;;;;5023136;28;20049;-60
2022/11/10 04:53:13;;;;;;;22.58;9.40;;;9.00;99.90;;;;;;5023046;28;20045;-61
2022/11/10 04:55:40;;;;;;;23.73;9.43;;;8.90;99.90;;;;;;5022494;28;20448;-60
2022/11/10 04:58:06;;;;;;;24.70;9.40;;;8.90;99.90;;;;;;5023610;28;20422;-60
2022/11/10 05:00:32;;;;;;;24.08;9.70;;;8.90;99.90;;;;;;5023280;28;20048;-60
2022/11/10 05:02:59;;;;;;;26.30;10.10;;;9.00;99.90;;;;;;5022325;28;20045;-60
2022/11/10 05:05:25;;;;;;;20.05;9.55;;;9.10;99.90;;;;;;5022090;28;20084;-60
2022/11/10 05:07:51;;;;;;;20.15;10.00;;;9.20;99.90;;;;;;5022927;28;20052;-61
2022/11/10 05:10:17;;;;;;;29.58;9.40;;;9.10;99.90;;;;;;5022949;28;20075;-60
2022/11/10 05:12:42;;;;;;;19.17;9.43;;;9.10;99.90;;;;;;5022191;28;20401;-61
2022/11/10 05:15:09;;;;;;;23.15;9.90;;;9.30;99.90;;;;;;5023447;28;20038;-60
2022/11/10 05:17:34;;;;;;;17.90;6.18;;;9.10;99.90;;;;;;5022165;28;20088;-61
2022/11/10 05:20:00;;;;;;;27.48;10.93;;;9.30;99.90;;;;;;5022160;28;20548;-61
2022/11/10 05:22:26;;;;;;;23.17;10.85;;;9.20;99.90;;;;;;5004241;28;20049;-61
2022/11/10 05:24:51;;;;;;;19.38;8.77;;;9.30;99.90;;;;;;5022065;28;20049;-60
2022/11/10 05:27:17;;;;;;;19.50;10.07;;;9.20;99.90;;;;;;5023007;28;20042;-60
2022/11/10 05:29:43;;;;;;;23.15;10.35;;;9.10;99.90;;;;;;5022102;28;20038;-60
2022/11/10 05:32:08;;;;;;;23.52;10.40;;;9.20;99.90;;;;;;5021646;28;20038;-62
2022/11/10 05:34:34;;;;;;;24.63;11.38;;;9.30;99.90;;;;;;5005030;28;20120;-60
2022/11/10 05:36:59;;;;;;;25.77;11.52;;;9.20;99.90;;;;;;5022401;28;20121;-60
2022/11/10 05:39:25;;;;;;;26.83;11.70;;;9.30;99.90;;;;;;5022622;28;20072;-61
2022/11/10 05:41:51;;;;;;;22.27;11.05;;;9.20;99.90;;;;;;5004312;28;20048;-60
2022/11/10 05:44:16;;;;;;;27.42;12.00;;;9.30;99.90;;;;;;5022036;28;20045;-61
2022/11/10 05:46:42;;;;;;;27.55;12.02;;;9.30;99.90;;;;;;5022573;28;20124;-60
2022/11/10 05:49:08;;;;;;;27.67;11.90;;;9.40;99.90;;;;;;5023591;28;20060;-60
2022/11/10 05:51:33;;;;;;;22.10;9.40;;;9.40;99.90;;;;;;5026343;28;20192;-60
2022/11/10 05:53:59;;;;;;;20.45;10.07;;;9.30;99.90;;;;;;5026722;28;20052;-60
2022/11/10 05:56:25;;;;;;;22.35;11.63;;;9.40;99.90;;;;;;5008971;28;20041;-60
2022/11/10 05:58:50;;;;;;;27.23;11.60;;;9.30;99.90;;;;;;5025681;28;20054;-60
2022/11/10 06:01:16;;;;;;;26.90;11.77;;;9.30;99.90;;;;;;5026363;28;20057;-60
2022/11/10 06:03:41;;;;;;;23.55;11.27;;;9.50;99.90;;;;;;5025323;28;20095;-61
2022/11/10 06:06:07;;;;;;;24.67;11.18;;;9.40;99.90;;;;;;5025916;28;20048;-60
2022/11/10 06:08:33;;;;;;;20.65;10.10;;;9.30;99.90;;;;;;5025253;28;20044;-60
2022/11/10 06:10:59;;;;;;;29.55;11.18;;;9.50;99.90;;;;;;5008197;28;20057;-60
2022/11/10 06:13:24;;;;;;;22.33;12.02;;;9.30;99.90;;;;;;5026401;28;20069;-60
2022/11/10 06:15:50;;;;;;;28.60;12.07;;;9.40;99.90;;;;;;5025785;28;20041;-60
2022/11/10 06:18:16;;;;;;;26.13;11.57;;;9.50;99.90;;;;;;5024466;28;20061;-60
2022/11/10 06:20:42;;;;;;;25.30;11.48;;;9.30;99.90;;;;;;5007768;28;20060;-60
2022/11/10 06:23:12;;;;;;;31.05;12.00;;;9.50;99.90;;;;;;5025994;28;20387;-61
2022/11/10 06:25:40;;;;;;;27.65;11.90;;;9.40;99.90;;;;;;5025234;28;20045;-61
2022/11/10 06:28:07;;;;;;;21.52;10.88;;;9.30;99.90;;;;;;5026331;28;20046;-60
2022/11/10 06:30:34;;;;;;;23.55;10.25;;;9.50;99.90;;;;;;5025837;28;20522;-61
2022/11/10 06:33:00;;;;;;;25.92;11.50;;;9.60;99.90;;;;;;5025028;28;20041;-60
2022/11/10 06:35:27;;;;;;;26.42;10.57;;;9.40;99.90;;;;;;5024824;28;20092;-60
2022/11/10 06:38:08;;;;;;;22.73;10.77;;;9.30;99.90;;;;;;5025450;28;20046;-60
2022/11/10 06:40:33;;;;;;;20.20;9.10;;;9.40;99.90;;;;;;5024668;28;20057;-60
2022/11/10 06:43:00;;;;;;;24.70;10.77;;;9.40;99.90;;;;;;5025948;28;20038;-60
2022/11/10 06:45:27;;;;;;;31.30;12.45;;;9.50;99.90;;;;;;5025528;28;20133;-60
2022/11/10 06:48:04;;;;;;;32.30;12.15;;;9.50;99.90;;;;;;5024357;28;20439;-60
2022/11/10 06:50:30;;;;;;;22.30;11.30;;;9.40;99.90;;;;;;5025678;28;20492;-60
2022/11/10 06:52:57;;;;;;;22.45;11.35;;;9.40;99.90;;;;;;5007654;28;20048;-60
2022/11/10 06:55:24;;;;;;;25.77;11.82;;;9.40;99.90;;;;;;5025236;28;20171;-60
2022/11/10 06:57:49;;;;;;;25.73;11.85;;;9.40;99.90;;;;;;5024224;28;20111;-60
2022/11/10 07:00:15;;;;;;;25.42;11.98;;;9.60;99.90;;;;;;5024109;28;20041;-60
2022/11/10 07:02:41;;;;;;;19.55;10.35;;;9.60;99.90;;;;;;5024038;28;20069;-61
2022/11/10 07:05:07;;;;;;;25.63;11.77;;;9.50;99.90;;;;;;5024106;28;20081;-61
2022/11/10 07:07:32;;;;;;;27.50;11.50;;;9.50;99.90;;;;;;5023167;28;20044;-60
2022/11/10 07:09:58;;;;;;;27.35;12.25;;;9.40;99.90;;;;;;5024838;28;20045;-60
2022/11/10 07:12:24;;;;;;;23.83;11.52;;;9.70;99.90;;;;;;5024819;28;20119;-60
2022/11/10 07:14:49;;;;;;;26.23;13.15;;;9.60;99.90;;;;;;5023958;28;20042;-61
2022/11/10 07:17:15;;;;;;;27.52;12.07;;;9.50;99.90;;;;;;5023960;28;20076;-60
2022/11/10 07:19:41;;;;;;;28.38;12.73;;;9.50;99.90;;;;;;5024272;28;20542;-61
2022/11/10 07:22:07;;;;;;;24.90;11.57;;;9.60;99.90;;;;;;5006237;28;20095;-60
2022/11/10 07:24:33;;;;;;;26.45;12.07;;;9.60;99.90;;;;;;5022869;28;20053;-60
2022/11/10 07:26:59;;;;;;;25.13;10.50;;;9.70;99.90;;;;;;5023558;28;20033;-61
2022/11/10 07:29:25;;;;;;;27.92;11.27;;;9.70;99.90;;;;;;5023786;28;20048;-61
2022/11/10 07:31:51;;;;;;;26.27;11.90;;;9.60;99.90;;;;;;5022567;28;20045;-60
2022/11/10 07:34:17;;;;;;;25.98;11.55;;;9.60;99.90;;;;;;5005075;28;20049;-60
2022/11/10 07:36:43;;;;;;;30.52;13.27;;;9.80;99.90;;;;;;5023960;28;20121;-60
2022/11/10 07:39:10;;;;;;;23.40;11.57;;;9.80;99.90;;;;;;5024886;28;20125;-60
2022/11/10 07:41:36;;;;;;;26.40;11.18;;;9.90;99.90;;;;;;5024019;28;20059;-62
2022/11/10 07:44:01;;;;;;;22.00;12.05;;;9.80;99.90;;;;;;5022999;28;20057;-60
2022/11/10 07:46:27;;;;;;;28.85;12.38;;;9.70;99.90;;;;;;5023325;28;20132;-61
2022/11/10 07:48:53;;;;;;;22.92;10.70;;;10.00;99.90;;;;;;5023108;28;20041;-61
2022/11/10 07:51:19;;;;;;;26.40;11.07;;;9.90;99.90;;;;;;5005565;28;20049;-60
2022/11/10 07:53:44;;;;;;;26.17;11.25;;;9.90;99.90;;;;;;5006299;28;20133;-61
2022/11/10 07:56:10;;;;;;;29.05;12.30;;;9.70;99.90;;;;;;5006598;28;20080;-60
2022/11/10 07:58:36;;;;;;;30.17;12.85;;;9.90;99.90;;;;;;5024226;28;20093;-62
2022/11/10 08:01:01;;;;;;;33.40;12.35;;;9.70;99.90;;;;;;5005284;28;20038;-61
2022/11/10 08:03:27;;;;;;;25.25;12.77;;;9.90;99.90;;;;;;5023453;28;20117;-60
2022/11/10 08:05:52;;;;;;;29.27;13.43;;;9.90;99.90;;;;;;5023178;28;20050;-60
2022/11/10 08:08:18;;;;;;;27.35;12.88;;;9.80;99.90;;;;;;5023772;28;20045;-60
2022/11/10 08:10:44;;;;;;;23.70;11.65;;;10.00;99.90;;;;;;5023046;28;20096;-61
2022/11/10 08:13:12;;;;;;;26.38;13.40;;;9.80;99.90;;;;;;5023784;28;20040;-60
2022/11/10 08:15:38;;;;;;;25.70;11.75;;;9.80;99.90;;;;;;5024200;28;20045;-61
2022/11/10 08:18:17;;;;;;;28.50;12.90;;;9.90;99.90;;;;;;5022196;28;20103;-61
2022/11/10 08:20:44;;;;;;;26.23;12.80;;;9.90;99.90;;;;;;5006330;28;20045;-60
2022/11/10 08:23:10;;;;;;;21.30;10.50;;;9.90;99.90;;;;;;5024505;28;20039;-60
2022/11/10 08:25:36;;;;;;;22.02;11.77;;;9.90;99.90;;;;;;5023625;28;20656;-61
2022/11/10 08:28:13;;;;;;;24.45;11.90;;;10.10;99.90;;;;;;5023579;28;20263;-61
2022/11/10 08:30:41;;;;;;;14.10;6.53;;;10.10;99.90;;;;;;5023973;28;20045;-61
2022/11/10 08:33:09;;;;;;;26.05;11.35;;;10.20;99.90;;;;;;5022175;28;20140;-61
2022/11/10 08:35:37;;;;;;;24.13;11.63;;;10.20;99.90;;;;;;5023708;28;20049;-60
2022/11/10 08:38:29;;;;;;;25.48;10.98;;;10.00;99.90;;;;;;5023129;28;20437;-60
2022/11/10 08:40:56;;;;;;;31.15;11.77;;;10.10;99.90;;;;;;5018898;28;20495;-60
2022/11/10 08:43:22;;;;;;;20.77;10.80;;;10.20;99.90;;;;;;5023483;28;20404;-61
2022/11/10 08:45:47;;;;;;;25.73;12.07;;;10.30;99.90;;;;;;5005393;28;20050;-61
2022/11/10 08:48:19;;;;;;;23.48;10.98;;;10.30;99.90;;;;;;5021593;28;20392;-61
2022/11/10 08:50:46;;;;;;;25.35;11.20;;;10.40;99.90;;;;;;5005057;28;20045;-60
2022/11/10 08:53:22;;;;;;;25.25;10.98;;;10.40;99.90;;;;;;5023179;28;20038;-61
2022/11/10 08:55:49;;;;;;;22.50;11.13;;;10.60;99.90;;;;;;5022275;28;20037;-61
2022/11/10 08:58:17;;;;;;;19.92;10.60;;;10.70;99.90;;;;;;5022714;28;20046;-60
2022/11/10 09:00:43;;;;;;;23.98;10.15;;;10.70;99.90;;;;;;5022923;28;20037;-61
2022/11/10 09:03:14;;;;;;;24.63;11.43;;;10.90;99.90;;;;;;5021436;28;20475;-61
2022/11/10 09:05:40;;;;;;;23.55;11.13;;;10.90;99.90;;;;;;5022657;28;20050;-60
2022/11/10 09:08:07;;;;;;;24.02;11.15;;;11.00;99.90;;;;;;5022891;28;20041;-60
2022/11/10 09:10:34;;;;;;;22.55;10.48;;;11.20;99.90;;;;;;5022748;28;20045;-61
2022/11/10 09:13:01;;;;;;;20.38;10.50;;;11.10;99.90;;;;;;5022473;28;20132;-61
2022/11/10 09:15:28;;;;;;;24.23;11.38;;;11.40;99.90;;;;;;5023056;28;20045;-61
2022/11/10 09:17:55;;;;;;;19.20;9.07;;;11.60;99.90;;;;;;5021398;28;20495;-61
2022/11/10 09:20:21;;;;;;;21.00;10.98;;;11.50;99.90;;;;;;5021947;28;20056;-61
2022/11/10 09:22:47;;;;;;;20.58;10.48;;;11.40;99.90;;;;;;5022466;28;20388;-61
2022/11/10 09:25:12;;;;;;;19.00;9.48;;;11.60;99.90;;;;;;5022988;28;20500;-62
2022/11/10 09:27:38;;;;;;;19.20;10.20;;;11.60;99.90;;;;;;5022630;28;20041;-61
2022/11/10 09:30:05;;;;;;;16.85;9.52;;;11.70;99.90;;;;;;5020782;28;20049;-61
2022/11/10 09:32:31;;;;;;;16.77;9.00;;;11.70;99.90;;;;;;5003017;28;20049;-61
2022/11/10 09:34:58;;;;;;;18.25;9.60;;;11.90;99.90;;;;;;5021896;28;20080;-61
2022/11/10 09:37:24;;;;;;;19.83;8.30;;;12.30;99.90;;;;;;5002794;28;20042;-61
2022/11/10 09:39:49;;;;;;;17.85;8.85;;;12.70;99.90;;;;;;5021555;28;20045;-61
2022/11/10 09:42:30;;;;;;;17.08;8.77;;;12.70;99.90;;;;;;5021540;28;20065;-61
2022/11/10 09:45:05;;;;;;;19.65;9.63;;;12.90;99.90;;;;;;5003727;28;20719;-61
2022/11/10 09:47:41;;;;;;;21.58;9.57;;;13.10;99.90;;;;;;5021178;28;20049;-61
2022/11/10 09:50:16;;;;;;;16.90;8.38;;;13.20;99.90;;;;;;5022108;28;20041;-61
2022/11/10 09:52:44;;;;;;;18.70;8.50;;;13.30;99.90;;;;;;5021732;28;20045;-62
2022/11/10 09:55:22;;;;;;;17.58;7.82;;;13.20;99.90;;;;;;5021515;28;20685;-61
2022/11/10 09:57:53;;;;;;;23.75;8.50;;;13.10;99.90;;;;;;5020734;28;20058;-61
2022/11/10 10:00:19;;;;;;;18.95;7.00;;;12.70;99.90;;;;;;5021459;28;20041;-61
2022/11/10 10:02:52;;;;;;;13.93;6.00;;;12.70;99.90;;;;;;5002421;28;20046;-61
2022/11/10 10:05:50;;;;;;;20.55;7.82;;;12.50;99.90;;;;;;5002454;28;20852;-61
2022/11/10 10:08:37;;;;;;;17.65;6.95;;;12.70;99.90;;;;;;5021277;28;20045;-61
2022/11/10 10:11:12;;;;;;;16.10;5.68;;;12.60;99.90;;;;;;5022447;28;20073;-61
2022/11/10 10:14:04;;;;;;;14.98;6.15;;;13.10;99.90;;;;;;5022919;28;20416;-61
2022/11/10 10:17:02;;;;;;;18.83;6.05;;;13.20;99.90;;;;;;5003571;28;20139;-61
2022/11/10 10:19:52;;;;;;;23.05;7.10;;;13.20;99.90;;;;;;5013662;28;20133;-62
2022/11/10 10:22:56;;;;;;;11.88;5.13;;;13.30;99.90;;;;;;5021684;28;20057;-61
2022/11/10 10:25:24;;;;;;;17.35;6.80;;;13.10;99.90;;;;;;4998215;28;20103;-61
2022/11/10 10:28:03;;;;;;;16.65;6.07;;;13.00;99.90;;;;;;4998551;28;20046;-61
2022/11/10 10:30:29;;;;;;;14.65;5.63;;;13.00;99.90;;;;;;5011126;28;20053;-61
2022/11/10 10:33:07;;;;;;;22.50;7.38;;;12.90;99.90;;;;;;5020311;28;20100;-61
2022/11/10 10:35:33;;;;;;;19.23;6.38;;;13.00;99.90;;;;;;5021757;28;20478;-61
2022/11/10 10:38:01;;;;;;;19.52;6.72;;;13.00;99.90;;;;;;5024367;28;20137;-61
2022/11/10 10:40:26;;;;;;;16.92;5.75;;;13.00;99.90;;;;;;5024800;28;20056;-61
2022/11/10 10:42:53;;;;;;;12.82;5.70;;;12.80;99.90;;;;;;5024042;28;20033;-61
2022/11/10 10:45:27;;;;;;;20.02;7.68;;;12.70;99.90;;;;;;5025269;28;20511;-61
2022/11/10 10:47:55;;;;;;;17.02;6.47;;;12.80;99.90;;;;;;5006518;28;20049;-61
2022/11/10 10:50:21;;;;;;;20.70;6.82;;;12.60;99.90;;;;;;5024871;28;20088;-61
2022/11/10 10:53:06;;;;;;;19.83;7.10;;;12.70;99.90;;;;;;5024021;28;20053;-61
2022/11/10 10:55:33;;;;;;;14.40;5.80;;;12.80;99.90;;;;;;5006335;28;20036;-61
2022/11/10 10:58:04;;;;;;;21.80;6.93;;;12.80;99.90;;;;;;5021660;28;20085;-60
2022/11/10 11:00:32;;;;;;;19.85;7.22;;;12.80;99.90;;;;;;5024761;28;20045;-61
2022/11/10 11:03:05;;;;;;;26.48;8.50;;;12.80;99.90;;;;;;5024368;28;20053;-61
2022/11/10 11:05:31;;;;;;;18.70;6.93;;;12.70;99.90;;;;;;5010673;28;20056;-61
2022/11/10 11:07:59;;;;;;;19.80;7.53;;;12.90;99.90;;;;;;5025078;28;20128;-60
2022/11/10 11:10:30;;;;;;;17.63;7.03;;;13.00;99.90;;;;;;5024433;28;20125;-61
2022/11/10 11:13:22;;;;;;;23.77;8.40;;;12.90;99.90;;;;;;5023759;28;20813;-61
2022/11/10 11:16:07;;;;;;;22.10;7.55;;;12.80;99.90;;;;;;5024821;28;20053;-61
2022/11/10 11:18:35;;;;;;;20.90;7.18;;;13.10;99.90;;;;;;5023611;28;20060;-60
2022/11/10 11:21:16;;;;;;;18.30;7.43;;;13.20;99.90;;;;;;5024983;28;20128;-61
2022/11/10 11:23:47;;;;;;;24.27;7.80;;;13.20;99.90;;;;;;5006151;28;20057;-61
2022/11/10 11:26:33;;;;;;;14.95;5.45;;;13.10;99.90;;;;;;5023636;28;20048;-62
2022/11/10 11:29:09;;;;;;;17.35;6.15;;;13.20;99.90;;;;;;5023259;28;20049;-61
2022/11/10 11:31:48;;;;;;;18.25;5.85;;;13.40;99.90;;;;;;5023051;28;20041;-61
2022/11/10 11:34:25;;;;;;;18.45;6.05;;;13.20;99.90;;;;;;5023234;28;20117;-61
2022/11/10 11:37:12;;;;;;;19.90;5.30;;;13.50;99.90;;;;;;5022898;28;20041;-61
2022/11/10 11:39:53;;;;;;;12.35;4.22;;;13.30;99.90;;;;;;5023033;28;20049;-61
2022/11/10 11:42:18;;;;;;;19.85;6.10;;;13.60;99.90;;;;;;5024229;28;20384;-61
2022/11/10 11:44:55;;;;;;;18.10;5.00;;;13.50;99.90;;;;;;5006489;28;20119;-62
2022/11/10 11:47:46;;;;;;;13.15;4.43;;;13.40;99.90;;;;;;5023118;28;20478;-61
2022/11/10 11:50:42;;;;;;;16.60;4.35;;;13.60;99.90;;;;;;5024715;28;20053;-62
2022/11/10 11:53:16;;;;;;;12.70;3.53;;;13.50;99.90;;;;;;5024583;28;20388;-61
2022/11/10 11:55:42;;;;;;;;;;;13.40;99.90;;;;;;5023805;28;20119;-61
2022/11/10 11:58:22;;;;;;;15.68;3.65;;;13.50;99.90;;;;;;5024645;28;20371;-61
2022/11/10 12:01:07;;;;;;;17.20;4.05;;;13.70;99.90;;;;;;5023977;28;20548;-60
2022/11/10 12:03:57;;;;;;;16.63;3.72;;;13.60;99.90;;;;;;5024190;28;20076;-62
2022/11/10 12:06:43;;;;;;;18.98;3.08;;;13.60;99.90;;;;;;5022141;28;20069;-61
2022/11/10 12:09:42;;;;;;;16.50;3.83;;;13.70;99.90;;;;;;5024854;28;20062;-61
2022/11/10 12:12:26;;;;;;;13.63;2.85;;;13.50;99.90;;;;;;5023891;28;20396;-61
2022/11/10 12:15:01;;;;;;;16.30;3.75;;;13.50;99.90;;;;;;5022991;28;20084;-61
2022/11/10 12:17:50;;;;;;;15.98;3.33;;;13.70;99.90;;;;;;5022183;28;20813;-61
2022/11/10 12:20:19;;;;;;;14.82;2.90;;;13.60;99.90;;;;;;4988679;28;20116;-61
2022/11/10 12:23:00;;;;;;;13.95;3.67;;;13.60;99.90;;;;;;5023714;28;20400;-62
2022/11/10 12:25:26;;;;;;;9.07;2.58;;;13.60;99.90;;;;;;5023264;28;20045;-62
2022/11/10 12:28:00;;;;;;;16.23;4.07;;;13.70;99.90;;;;;;5022342;28;20041;-62
2022/11/10 12:30:28;;;;;;;14.52;3.83;;;13.50;99.90;;;;;;5022859;28;20131;-62
2022/11/10 12:32:54;;;;;;;14.40;3.33;;;13.70;99.90;;;;;;5021728;28;20041;-62
2022/11/10 12:35:31;;;;;;;9.63;2.40;;;13.80;99.90;;;;;;5022213;28;20152;-61
2022/11/10 12:38:07;;;;;;;18.52;3.92;;;13.80;99.90;;;;;;5021960;28;20560;-62
2022/11/10 12:40:57;;;;;;;18.90;3.25;;;13.70;99.90;;;;;;5022887;28;20081;-61
2022/11/10 12:43:52;;;;;;;18.38;3.85;;;13.80;99.90;;;;;;5022406;28;20099;-62
2022/11/10 12:46:18;;;;;;;15.55;3.28;;;13.80;99.90;;;;;;5021647;28;20599;-62
2022/11/10 12:49:05;;;;;;;19.27;3.97;;;13.80;99.90;;;;;;5023051;28;20037;-62
2022/11/10 12:51:51;;;;;;;16.08;2.95;;;13.80;99.90;;;;;;5022802;28;20053;-61
2022/11/10 12:54:19;;;;;;;12.43;3.08;;;13.80;99.90;;;;;;5004647;28;20065;-62
2022/11/10 12:56:50;;;;;;;13.73;3.22;;;13.80;99.90;;;;;;5022206;28;20041;-63
2022/11/10 12:59:19;;;;;;;12.35;3.53;;;13.80;99.90;;;;;;5003938;28;20049;-62
2022/11/10 13:01:48;;;;;;;18.48;3.78;;;13.90;99.90;;;;;;5021399;28;20041;-62
2022/11/10 13:04:15;;;;;;;15.13;3.42;;;13.70;99.90;;;;;;5020478;28;20053;-62